Time;durP1;ratioP1;P1;durP2;ratioP2;P2;SDS_P1;SDS_P2;PMS_P1;PMS_P2;Temp;Humidity;BMP_temperature;BMP_pressure;BME280_temperature;BME280_humidity;BME280_pressure;Samples;Min_cycle;Max_cycle;Signal;HPM_P1;HPM_P2
2023/10/21 00:03:13;;;;;;;27.85;4.22;;;;;;;25.01;36.22;97828.28;7775537;32;37613;-81
2023/10/21 00:07:30;;;;;;;19.42;4.03;;;;;;;25.09;36.17;97838.13;7779687;32;38224;-74
2023/10/21 00:11:47;;;;;;;16.95;3.95;;;;;;;25.09;36.21;97838.13;7793251;32;39113;-81
2023/10/21 00:16:04;;;;;;;19.40;4.35;;;;;;;24.86;36.62;97849.16;7763243;32;40824;-81
2023/10/21 00:20:20;;;;;;;23.00;4.35;;;;;;;25.08;36.30;97850.47;7783864;32;38002;-80
2023/10/21 00:24:37;;;;;;;13.55;3.53;;;;;;;25.30;35.82;97853.00;7765606;32;37261;-81
2023/10/21 00:28:53;;;;;;;17.75;3.90;;;;;;;25.34;35.85;97848.19;7766002;32;39201;-80
2023/10/21 00:33:09;;;;;;;19.75;4.05;;;;;;;25.19;35.98;97847.56;7775966;32;39833;-81
2023/10/21 00:37:26;;;;;;;25.37;4.47;;;;;;;25.23;36.00;97842.75;7792368;32;38828;-81
2023/10/21 00:41:43;;;;;;;17.87;3.80;;;;;;;25.04;36.39;97852.53;7772348;32;37157;-80
2023/10/21 00:46:05;;;;;;;18.75;3.53;;;;;;;25.10;36.43;97872.38;7766529;32;39916;-80
2023/10/21 00:50:21;;;;;;;17.75;3.87;;;;;;;25.04;36.50;97857.28;7752493;32;39906;-80
2023/10/21 00:54:38;;;;;;;20.30;4.37;;;;;;;25.36;35.81;97851.34;7774933;32;38732;-81
2023/10/21 00:58:54;;;;;;;19.30;4.12;;;;;;;25.48;35.73;97877.91;7764423;32;37144;-80
2023/10/21 01:03:11;;;;;;;17.42;4.15;;;;;;;25.42;35.76;97871.19;7775508;32;40196;-81
2023/10/21 01:07:27;;;;;;;20.92;4.40;;;;;;;25.32;36.05;97860.97;7782843;32;40174;-81
2023/10/21 01:11:44;;;;;;;20.58;4.30;;;;;;;25.47;35.86;97873.53;7782189;32;38193;-82
2023/10/21 01:16:00;;;;;;;20.30;4.05;;;;;;;25.36;36.06;97870.88;7784100;32;37933;-80
2023/10/21 01:20:17;;;;;;;16.95;3.78;;;;;;;25.33;36.01;97882.09;7784018;32;39313;-79
2023/10/21 01:24:33;;;;;;;24.67;4.10;;;;;;;25.67;35.42;97860.50;7790079;32;40797;-79
2023/10/21 01:28:50;;;;;;;20.35;4.30;;;;;;;25.20;36.25;97870.62;7776650;32;37924;-83
2023/10/21 01:33:06;;;;;;;17.40;4.12;;;;;;;25.32;36.05;97884.09;7774111;32;38328;-82
2023/10/21 01:37:23;;;;;;;16.08;4.00;;;;;;;25.26;36.36;97891.31;7760038;32;39258;-81
2023/10/21 01:41:39;;;;;;;20.12;4.25;;;;;;;25.31;36.10;97888.06;7777215;32;39599;-83
2023/10/21 01:45:56;;;;;;;17.58;3.85;;;;;;;25.25;36.42;97889.69;7774445;32;37330;-82
2023/10/21 01:50:12;;;;;;;14.55;3.80;;;;;;;25.22;36.38;97896.13;7775364;32;37354;-83
2023/10/21 01:54:28;;;;;;;13.60;4.07;;;;;;;25.40;36.16;97893.91;7774237;32;39470;-82
2023/10/21 01:58:45;;;;;;;26.77;4.43;;;;;;;25.10;36.81;97889.09;7785118;32;40915;-82
2023/10/21 02:03:02;;;;;;;16.27;4.10;;;;;;;24.91;37.23;97919.16;7774330;32;38449;-83
2023/10/21 02:07:19;;;;;;;16.55;4.55;;;;;;;25.03;37.08;97926.19;7774306;32;36896;-82
2023/10/21 02:11:35;;;;;;;16.33;4.82;;;;;;;24.83;37.62;97930.78;7775159;32;38244;-82
2023/10/21 02:15:52;;;;;;;16.10;4.15;;;;;;;24.59;37.99;97921.44;7764899;32;40041;-82
2023/10/21 02:20:10;;;;;;;16.33;3.70;;;;;;;24.48;38.14;97924.31;7764600;32;37890;-82
2023/10/21 02:24:26;;;;;;;16.30;4.10;;;;;;;24.38;38.25;97942.66;7764328;32;36059;-82
2023/10/21 02:28:43;;;;;;;14.77;3.78;;;;;;;24.27;38.53;97950.31;7790134;32;41670;-83
2023/10/21 02:33:00;;;;;;;23.95;4.32;;;;;;;24.36;38.35;97964.56;7779541;32;39479;-82
2023/10/21 02:37:17;;;;;;;16.35;3.97;;;;;;;24.50;38.36;97942.16;7770633;32;38005;-82
2023/10/21 02:41:33;;;;;;;21.17;4.40;;;;;;;24.71;37.94;97929.28;7769268;32;37448;-83
2023/10/21 02:45:49;;;;;;;14.38;3.67;;;;;;;24.40;38.71;97915.19;7774663;32;39463;-82
2023/10/21 02:50:06;;;;;;;17.73;4.07;;;;;;;23.92;39.83;97916.75;7774546;32;40213;-82
2023/10/21 02:54:23;;;;;;;15.13;3.78;;;;;;;23.96;39.96;97920.28;7774650;32;36743;-84
2023/10/21 02:58:40;;;;;;;20.45;4.15;;;;;;;23.96;40.34;97931.41;7774860;32;35716;-82
2023/10/21 03:02:56;;;;;;;20.73;4.60;;;;;;;24.22;40.29;97937.63;7759763;32;39927;-83
2023/10/21 03:07:13;;;;;;;16.92;4.03;;;;;;;23.98;40.84;97931.81;7773637;32;40553;-81
2023/10/21 03:11:30;;;;;;;12.57;2.85;;;;;;;23.41;42.07;97966.22;7773673;32;38668;-82
2023/10/21 03:15:47;;;;;;;11.40;3.35;;;;;;;23.69;41.78;97945.03;7757872;32;37825;-83
2023/10/21 03:20:04;;;;;;;13.48;3.05;;;;;;;23.57;42.38;97970.53;7774566;32;39986;-82
2023/10/21 03:24:20;;;;;;;14.38;3.40;;;;;;;23.32;42.62;97963.06;7790349;32;39985;-83
2023/10/21 03:28:39;;;;;;;17.60;3.97;;;;;;;23.34;42.42;97974.59;7775164;32;37883;-82
2023/10/21 03:32:55;;;;;;;21.58;3.25;;;;;;;23.52;42.09;97966.16;7775091;32;36997;-82
2023/10/21 03:37:11;;;;;;;17.80;3.45;;;;;;;23.27;42.66;97990.47;7785967;32;39416;-82
2023/10/21 03:41:28;;;;;;;8.45;2.67;;;;;;;23.12;43.43;97987.72;7767180;32;40043;-82
2023/10/21 03:45:44;;;;;;;18.23;3.87;;;;;;;23.39;43.41;98003.97;7775177;32;37881;-81
2023/10/21 03:50:01;;;;;;;13.20;3.87;;;;;;;23.29;44.04;97988.91;7762511;32;35514;-82
2023/10/21 03:54:18;;;;;;;22.05;4.95;;;;;;;23.15;44.46;98006.41;7776469;32;40136;-83
2023/10/21 03:58:34;;;;;;;12.07;3.70;;;;;;;22.86;45.45;98008.38;7775646;32;39536;-83
2023/10/21 04:02:51;;;;;;;18.10;3.95;;;;;;;22.80;45.60;98023.84;7761778;32;38520;-83
2023/10/21 04:07:07;;;;;;;17.17;3.40;;;;;;;23.01;44.53;98034.97;7775394;32;37862;-82
2023/10/21 04:11:24;;;;;;;20.12;4.28;;;;;;;22.86;44.62;98059.16;7765144;32;39953;-81
2023/10/21 04:15:41;;;;;;;19.73;3.83;;;;;;;22.58;45.78;98050.81;7774381;32;40924;-81
2023/10/21 04:19:58;;;;;;;17.33;3.70;;;;;;;22.60;46.08;98042.87;7776185;32;38562;-81
2023/10/21 04:24:15;;;;;;;16.27;3.87;;;;;;;23.08;45.05;98025.03;7775338;32;37315;-81
2023/10/21 04:28:32;;;;;;;19.48;4.03;;;;;;;22.72;46.14;98039.72;7783550;32;40179;-81
2023/10/21 04:32:48;;;;;;;18.65;3.97;;;;;;;22.82;46.26;98049.25;7774785;32;40853;-81
2023/10/21 04:37:05;;;;;;;12.32;3.95;;;;;;;22.68;46.96;98030.59;7783997;32;37896;-82
2023/10/21 04:41:21;;;;;;;14.18;3.60;;;;;;;22.94;46.69;98023.03;7764297;32;37852;-82
2023/10/21 04:45:37;;;;;;;19.10;4.37;;;;;;;22.55;47.98;98046.06;7778682;32;39222;-82
2023/10/21 04:49:53;;;;;;;14.98;3.85;;;;;;;22.59;48.42;98058.75;7765323;32;39871;-82
2023/10/21 04:54:10;;;;;;;12.37;3.33;;;;;;;22.49;48.68;98071.44;7765535;32;38672;-83
2023/10/21 04:58:27;;;;;;;18.27;3.78;;;;;;;22.43;49.01;98081.31;7781209;32;37890;-80
2023/10/21 05:02:43;;;;;;;9.70;2.75;;;;;;;22.42;48.88;98074.19;7779897;32;39148;-81
2023/10/21 05:07:00;;;;;;;12.63;2.97;;;;;;;21.97;49.77;98081.13;7792829;32;40117;-81
2023/10/21 05:11:16;;;;;;;9.93;2.30;;;;;;;22.05;49.67;98116.06;7792061;32;38727;-83
2023/10/21 05:15:33;;;;;;;14.32;2.72;;;;;;;21.81;50.73;98106.44;7792868;32;37169;-79
2023/10/21 05:19:49;;;;;;;14.00;2.78;;;;;;;21.55;51.13;98124.88;7792674;32;40112;-79
2023/10/21 05:24:05;;;;;;;12.85;2.50;;;;;;;21.52;51.46;98117.34;7792495;32;40838;-79
2023/10/21 05:28:22;;;;;;;12.40;2.90;;;;;;;21.42;52.30;98127.16;7792262;32;38616;-81
2023/10/21 05:32:38;;;;;;;12.98;2.30;;;;;;;21.60;51.86;98151.47;7792515;32;37898;-80
2023/10/21 05:36:54;;;;;;;10.52;2.10;;;;;;;20.96;52.83;98169.13;7792643;32;39328;-81
2023/10/21 05:41:11;;;;;;;8.10;2.05;;;;;;;20.97;53.62;98195.63;7791335;32;39685;-80
2023/10/21 05:45:27;;;;;;;8.60;2.37;;;;;;;20.95;54.11;98198.75;7789852;32;37557;-80
2023/10/21 05:49:44;;;;;;;12.05;2.10;;;;;;;20.89;55.48;98196.75;7774373;32;37238;-81
2023/10/21 05:54:00;;;;;;;8.32;1.90;;;;;;;20.90;54.67;98212.97;7765345;32;40170;-84
2023/10/21 05:58:16;;;;;;;11.90;2.75;;;;;;;20.38;55.97;98225.75;7765480;32;40894;-80
2023/10/21 06:02:33;;;;;;;7.43;1.95;;;;;;;20.57;56.30;98225.59;7776407;32;38150;-81
2023/10/21 06:06:54;;;;;;;7.53;2.17;;;;;;;20.68;55.68;98239.63;7788165;32;36766;-81
2023/10/21 06:11:10;;;;;;;6.22;1.50;;;;;;;20.81;55.15;98240.16;7765359;32;39348;-81
2023/10/21 06:15:27;;;;;;;9.02;1.37;;;;;;;20.76;55.29;98216.38;7788253;32;40083;-82
2023/10/21 06:19:45;;;;;;;8.43;1.95;;;;;;;20.77;55.51;98225.50;7792166;32;37971;-81
2023/10/21 06:24:05;;;;;;;3.87;1.40;;;;;;;20.66;56.56;98236.41;7792251;32;37886;-82
2023/10/21 06:28:21;;;;;;;6.85;1.80;;;;;;;20.91;53.35;98247.78;7792039;32;40053;-81
2023/10/21 06:32:38;;;;;;;3.05;1.20;;;;;;;20.66;53.82;98241.97;7791906;32;40025;-82
2023/10/21 06:36:54;;;;;;;5.35;1.52;;;;;;;20.92;52.75;98259.66;7777831;32;37907;-82
2023/10/21 06:41:11;;;;;;;7.37;1.75;;;;;;;20.45;53.60;98276.50;7791867;32;37925;-82
2023/10/21 06:45:29;;;;;;;7.35;1.77;;;;;;;20.68;52.53;98283.94;7791774;32;39321;-81
2023/10/21 06:49:46;;;;;;;8.82;1.73;;;;;;;20.13;54.65;98281.56;7791498;32;40801;-81
2023/10/21 06:54:08;;;;;;;6.97;1.40;;;;;;;19.91;55.62;98274.09;7790408;32;38629;-81
2023/10/21 06:58:27;;;;;;;11.93;4.75;;;;;;;20.31;54.61;98292.88;7790731;32;37091;-81
2023/10/21 07:02:43;;;;;;;28.65;15.55;;;;;;;20.73;53.50;98300.22;7776592;32;40066;-81
2023/10/21 07:07:00;;;;;;;7.18;1.87;;;;;;;20.62;54.15;98326.94;7791253;32;40068;-80
2023/10/21 07:11:16;;;;;;;6.95;1.83;;;;;;;20.89;53.13;98349.88;7791002;32;38826;-81
2023/10/21 07:15:33;;;;;;;7.00;1.52;;;;;;;21.36;53.23;98351.22;7791274;32;37252;-82
2023/10/21 07:19:50;;;;;;;10.75;1.73;;;;;;;20.91;52.90;98357.81;7791132;32;39033;-80
2023/10/21 07:24:07;;;;;;;5.60;1.48;;;;;;;21.16;52.86;98371.94;7790739;32;40016;-79
2023/10/21 07:28:23;;;;;;;5.47;1.70;;;;;;;21.34;53.79;98381.28;7790761;32;37671;-78
2023/10/21 07:32:39;;;;;;;7.10;1.70;;;;;;;21.41;53.57;98375.03;7790596;32;37896;-80
2023/10/21 07:36:57;;;;;;;7.12;2.25;;;;;;;21.64;53.29;98352.72;7790614;32;40228;-77
2023/10/21 07:41:14;;;;;;;6.12;1.83;;;;;;;21.32;54.43;98375.31;7790561;32;40177;-77
2023/10/21 07:45:30;;;;;;;5.30;1.80;;;;;;;21.22;55.07;98395.41;7776504;32;37856;-76
2023/10/21 07:49:47;;;;;;;7.03;1.73;;;;;;;21.44;54.52;98390.91;7790323;32;37972;-76
2023/10/21 07:54:04;;;;;;;7.97;1.62;;;;;;;21.42;53.37;98387.72;7789808;32;40450;-76
2023/10/21 07:58:20;;;;;;;4.40;1.37;;;;;;;20.92;53.47;98393.44;7789971;32;39980;-76
2023/10/21 08:02:37;;;;;;;4.15;1.55;;;;;;;20.62;54.64;98388.66;7790019;32;38786;-77
2023/10/21 08:06:53;;;;;;;8.77;2.00;;;;;;;21.24;52.82;98376.41;7790261;32;36778;-76
2023/10/21 08:11:09;;;;;;;7.37;1.55;;;;;;;21.17;53.16;98388.19;7793849;32;39259;-77
2023/10/21 08:15:29;;;;;;;14.57;1.92;;;;;;;20.94;53.79;98402.16;7793472;32;40024;-77
2023/10/21 08:19:47;;;;;;;6.53;1.52;;;;;;;21.31;53.24;98406.19;7793328;32;38894;-77
2023/10/21 08:24:04;;;;;;;7.75;1.70;;;;;;;21.23;53.93;98419.16;7792573;32;36852;-76
2023/10/21 08:28:20;;;;;;;10.35;2.40;;;;;;;20.99;54.36;98426.78;7779591;32;39348;-78
2023/10/21 08:32:37;;;;;;;8.65;2.15;;;;;;;20.77;55.24;98431.19;7793102;32;40937;-76
2023/10/21 08:36:53;;;;;;;8.27;2.35;;;;;;;21.13;54.46;98428.94;7793096;32;38787;-76
2023/10/21 08:41:13;;;;;;;9.00;2.47;;;;;;;21.37;53.68;98427.66;7793305;32;37333;-76
2023/10/21 08:45:32;;;;;;;7.57;1.90;;;;;;;21.84;53.13;98444.06;7779847;32;39284;-76
2023/10/21 08:49:50;;;;;;;7.45;1.62;;;;;;;22.03;52.37;98441.09;7779570;32;40810;-77
2023/10/21 08:54:07;;;;;;;10.70;2.20;;;;;;;21.99;52.15;98456.91;7779218;32;38025;-71
2023/10/21 08:58:28;;;;;;;5.85;1.50;;;;;;;22.24;51.57;98459.13;7793163;32;36939;-76
2023/10/21 09:02:44;;;;;;;5.03;1.77;;;;;;;21.97;52.83;98473.12;7793163;32;40033;-77
2023/10/21 09:07:01;;;;;;;7.68;2.65;;;;;;;22.09;53.05;98472.88;7792915;32;40047;-76
2023/10/21 09:11:24;;;;;;;24.98;11.27;;;;;;;22.54;51.33;98480.41;7792820;32;38634;-76
2023/10/21 09:15:41;;;;;;;27.67;13.52;;;;;;;22.14;51.92;98491.13;7792849;32;38014;-78
2023/10/21 09:19:58;;;;;;;5.65;1.80;;;;;;;22.06;52.88;98487.50;7791718;32;39567;-77
2023/10/21 09:24:22;;;;;;;14.48;1.77;;;;;;;21.63;53.26;98495.34;7792576;32;40817;-77
2023/10/21 09:28:39;;;;;;;6.10;1.55;;;;;;;22.02;52.17;98486.63;7792729;32;38491;-77
2023/10/21 09:33:05;;;;;;;8.32;2.08;;;;;;;21.49;53.23;98495.97;7787238;32;170371;-76
2023/10/21 09:37:26;;;;;;;5.00;1.52;;;;;;;21.55;53.61;98486.13;7792711;32;39536;-78
2023/10/21 09:41:44;;;;;;;7.32;1.70;;;;;;;21.53;54.35;98505.09;7792642;32;40724;-77
2023/10/21 09:46:05;;;;;;;6.53;1.73;;;;;;;21.34;54.82;98519.88;7778948;32;37628;-77
2023/10/21 09:50:24;;;;;;;8.70;2.35;;;;;;;21.42;53.89;98539.38;7792694;32;37661;-77
2023/10/21 09:54:56;;;;;;;9.13;1.50;;;;;;;21.30;54.03;98534.84;7792503;32;40121;-77
2023/10/21 09:59:12;;;;;;;6.37;1.17;;;;;;;20.76;55.77;98551.44;7792394;32;41003;-78
2023/10/21 10:03:33;;;;;;;4.97;1.60;;;;;;;21.11;55.00;98549.62;7778398;32;38468;-77
2023/10/21 10:07:50;;;;;;;4.78;1.37;;;;;;;20.58;56.69;98539.25;7778936;32;37332;-78
2023/10/21 10:12:31;;;;;;;11.00;1.70;;;;;;;21.20;55.14;98548.19;7792225;32;40164;-77
2023/10/21 10:16:47;;;;;;;4.20;1.15;;;;;;;21.01;55.43;98546.31;7792238;32;40549;-76
2023/10/21 10:21:13;;;;;;;6.03;1.55;;;;;;;21.34;54.02;98536.50;7792135;32;38847;-79
2023/10/21 10:25:39;;;;;;;5.87;1.37;;;;;;;21.89;52.93;98538.03;7779229;32;37195;-76
2023/10/21 10:29:57;;;;;;;9.60;1.87;;;;;;;21.93;53.23;98539.66;7791770;32;40128;-78
2023/10/21 10:34:16;;;;;;;4.00;1.10;;;;;;;22.45;52.28;98562.06;7792064;32;40825;-75
2023/10/21 10:38:42;;;;;;;4.10;1.20;;;;;;;22.80;50.57;98546.09;7791972;32;37301;-77
2023/10/21 10:42:58;;;;;;;4.07;1.12;;;;;;;22.94;50.80;98534.31;7791927;32;37857;-77
2023/10/21 10:47:16;;;;;;;3.00;1.00;;;;;;;23.32;49.62;98521.09;7777726;32;39295;-77
2023/10/21 10:51:43;;;;;;;3.67;1.30;;;;;;;24.30;47.22;98518.34;7791575;32;40933;-77
2023/10/21 10:55:59;;;;;;;3.25;1.05;;;;;;;25.10;44.93;98502.44;7777882;32;37876;-77
2023/10/21 11:00:22;;;;;;;3.15;0.90;;;;;;;25.57;42.86;98521.87;7791583;32;37196;-76
2023/10/21 11:04:41;;;;;;;2.12;0.80;;;;;;;25.22;44.22;98520.75;7791591;32;40181;-74
2023/10/21 11:08:59;;;;;;;2.87;0.90;;;;;;;24.62;43.27;98547.44;7791423;32;40312;-75
2023/10/21 11:13:17;;;;;;;4.25;1.10;;;;;;;24.42;44.22;98533.06;7786049;32;37379;-74
2023/10/21 11:17:33;;;;;;;3.62;0.95;;;;;;;24.56;43.95;98519.19;7767404;32;36842;-74
2023/10/21 11:21:49;;;;;;;1.87;0.80;;;;;;;24.45;44.45;98521.13;7763844;32;39372;-75
2023/10/21 11:26:09;;;;;;;3.85;1.48;;;;;;;25.50;41.88;98531.06;7784835;32;40045;-78
2023/10/21 11:30:26;;;;;;;7.43;1.12;;;;;;;25.33;42.04;98549.41;7760122;32;38754;-78
2023/10/21 11:34:45;;;;;;;4.10;1.00;;;;;;;25.08;42.60;98541.88;7787678;32;36681;-78
2023/10/21 11:39:04;;;;;;;7.07;1.08;;;;;;;25.55;42.36;98546.59;7763605;32;40080;-78
2023/10/21 11:43:21;;;;;;;4.32;1.12;;;;;;;25.80;40.79;98564.06;7765183;32;40923;-78
2023/10/21 11:47:38;;;;;;;3.55;1.10;;;;;;;25.97;39.62;98579.16;7774876;32;37620;-80
2023/10/21 11:51:55;;;;;;;5.90;1.33;;;;;;;24.33;43.86;98580.78;7794260;32;37103;-77
2023/10/21 12:38:17;;;;;;;5.97;1.08;;;;;;;23.90;45.05;98623.16;7786074;32;39952;-79
2023/10/21 12:42:29;;;;;;;8.07;1.27;;;;;;;24.40;44.08;98636.50;7769461;32;38743;-77
2023/10/21 12:46:47;;;;;;;4.87;1.35;;;;;;;24.05;45.46;98651.09;7766263;32;36974;-77
2023/10/21 12:51:07;;;;;;;5.62;1.50;;;;;;;23.61;46.69;98622.19;7775970;32;39330;-77
2023/10/21 12:55:25;;;;;;;5.75;1.27;;;;;;;23.36;47.44;98630.38;7790205;32;39964;-77
2023/10/21 12:59:42;;;;;;;7.62;1.27;;;;;;;23.93;45.93;98638.31;7792620;32;38794;-78
2023/10/21 13:03:58;;;;;;;8.70;1.40;;;;;;;23.84;46.15;98647.00;7785836;32;36868;-76
2023/10/21 13:08:15;;;;;;;8.18;1.05;;;;;;;22.98;48.14;98657.44;7789986;32;40079;-72
2023/10/21 13:12:31;;;;;;;6.28;1.58;;;;;;;23.05;48.31;98646.38;7789533;32;40670;-78
2023/10/21 13:16:48;;;;;;;4.78;1.02;;;;;;;23.34;47.43;98647.44;7778645;32;37714;-78
2023/10/21 13:21:07;;;;;;;7.87;1.80;;;;;;;22.82;48.84;98661.25;7766085;32;37862;-78
2023/10/21 13:25:24;;;;;;;7.28;1.37;;;;;;;23.29;48.14;98644.22;7765452;32;39437;-77
2023/10/21 13:29:47;;;;;;;5.37;1.40;;;;;;;23.53;47.84;98631.69;7765660;32;40063;-78
2023/10/21 13:34:06;;;;;;;6.97;1.33;;;;;;;23.53;47.55;98626.91;7765546;32;38015;-78
2023/10/21 13:38:23;;;;;;;7.80;1.50;;;;;;;23.59;47.38;98624.56;7765446;32;36992;-79
2023/10/21 13:42:51;;;;;;;8.70;1.48;;;;;;;23.54;47.58;98627.69;7778102;32;39520;-74
2023/10/21 13:47:11;;;;;;;5.18;1.55;;;;;;;23.47;47.96;98617.31;7761348;32;40771;-79
2023/10/21 13:51:28;;;;;;;8.88;1.50;;;;;;;23.61;47.51;98611.06;7751282;32;38021;-78
2023/10/21 13:55:45;;;;;;;6.18;1.20;;;;;;;23.57;47.47;98611.03;7766630;32;36594;-80
2023/10/21 14:00:07;;;;;;;7.22;1.52;;;;;;;23.63;46.91;98609.50;7765530;32;39430;-80
2023/10/21 14:04:25;;;;;;;7.97;1.48;;;;;;;23.19;47.75;98599.25;7783938;32;39926;-83
2023/10/21 14:08:41;;;;;;;4.62;1.58;;;;;;;23.30;47.51;98598.53;7764847;32;38652;-80
2023/10/21 14:12:58;;;;;;;8.68;1.55;;;;;;;23.46;46.81;98582.38;7785985;32;37181;-80
2023/10/21 14:17:14;;;;;;;6.47;1.10;;;;;;;23.57;46.79;98580.44;7765042;32;38104;-80
2023/10/21 14:21:33;;;;;;;6.12;1.48;;;;;;;23.63;46.53;98592.00;7789116;32;39958;-80
2023/10/21 14:25:51;;;;;;;5.60;1.25;;;;;;;23.55;46.29;98579.25;7765396;32;37328;-78
2023/10/21 14:30:10;;;;;;;7.95;1.23;;;;;;;23.86;45.61;98594.53;7751296;32;37542;-79
2023/10/21 14:34:27;;;;;;;5.43;1.33;;;;;;;23.48;46.20;98591.13;7764436;32;40017;-78
2023/10/21 14:38:45;;;;;;;6.57;1.90;;;;;;;23.59;46.40;98607.88;7781669;32;39734;-79
2023/10/21 14:43:02;;;;;;;5.72;1.48;;;;;;;23.61;46.69;98620.22;7791876;32;37801;-79
2023/10/21 14:47:22;;;;;;;3.33;0.80;;;;;;;23.80;45.43;98632.22;7791947;32;37115;-79
2023/10/21 14:51:39;;;;;;;4.93;1.15;;;;;;;23.62;45.29;98624.56;7791693;32;39513;-79
2023/10/21 14:55:55;;;;;;;6.70;1.50;;;;;;;23.41;46.18;98622.44;7765823;32;40813;-80
2023/10/21 15:00:25;;;;;;;4.85;0.90;;;;;;;23.57;46.21;98622.16;7764266;32;38724;-79
2023/10/21 15:04:42;;;;;;;4.95;1.33;;;;;;;23.31;46.06;98623.16;7764194;32;37936;-78
2023/10/21 15:08:58;;;;;;;4.57;1.35;;;;;;;23.32;46.66;98637.88;7764044;32;39296;-79
2023/10/21 15:13:15;;;;;;;5.40;1.75;;;;;;;23.37;46.74;98640.28;7787086;32;39991;-79
2023/10/21 15:17:31;;;;;;;6.93;1.37;;;;;;;23.32;47.03;98635.09;7770787;32;38484;-79
2023/10/21 15:21:48;;;;;;;4.90;1.17;;;;;;;23.22;47.21;98629.06;7763894;32;37034;-78
2023/10/21 15:26:14;;;;;;;4.53;1.35;;;;;;;23.29;46.94;98620.00;7766592;32;39321;-79
2023/10/21 15:30:31;;;;;;;4.97;1.70;;;;;;;23.33;46.81;98606.91;7789714;32;39922;-76
2023/10/21 15:34:48;;;;;;;6.10;1.70;;;;;;;23.33;47.29;98615.25;7790595;32;37772;-77
2023/10/21 15:39:11;;;;;;;6.25;1.60;;;;;;;23.23;47.24;98632.62;7790607;32;37114;-79
2023/10/21 15:43:28;;;;;;;3.67;1.17;;;;;;;23.08;47.43;98642.03;7769794;32;40083;-81
2023/10/21 15:47:44;;;;;;;5.60;1.30;;;;;;;22.70;46.93;98664.28;7763209;32;39998;-78
2023/10/21 15:52:01;;;;;;;4.75;1.45;;;;;;;22.77;46.55;98667.16;7764380;32;38079;-80
2023/10/21 15:56:18;;;;;;;8.90;1.60;;;;;;;22.75;48.37;98668.69;7785166;32;37321;-79
2023/10/21 16:00:35;;;;;;;7.18;1.67;;;;;;;22.59;49.64;98668.91;7779504;32;39287;-77
2023/10/21 16:04:51;;;;;;;13.35;2.70;;;;;;;21.65;53.03;98694.62;7773085;32;39694;-77
2023/10/21 16:09:08;;;;;;;7.30;2.03;;;;;;;22.15;51.83;98689.00;7780337;32;38088;-78
2023/10/21 16:13:24;;;;;;;5.37;1.87;;;;;;;22.20;51.93;98694.22;7772948;32;37248;-78
2023/10/21 16:17:41;;;;;;;6.03;1.80;;;;;;;21.96;52.63;98687.94;7775295;32;39382;-78
2023/10/21 16:22:00;;;;;;;5.20;1.90;;;;;;;21.97;52.58;98688.75;7775314;32;39923;-77
2023/10/21 16:26:17;;;;;;;9.32;1.83;;;;;;;22.00;52.42;98707.41;7776109;32;38039;-76
2023/10/21 16:30:33;;;;;;;10.10;1.83;;;;;;;21.86;52.78;98705.25;7777507;32;36828;-77
2023/10/21 16:34:50;;;;;;;7.85;1.40;;;;;;;21.75;52.26;98705.87;7779470;32;39400;-78
2023/10/21 16:39:06;;;;;;;7.25;1.55;;;;;;;21.69;52.12;98718.44;7766519;32;40012;-78
2023/10/21 16:43:23;;;;;;;6.35;1.77;;;;;;;21.74;51.83;98714.56;7752438;32;38105;-77
2023/10/21 16:47:39;;;;;;;6.82;2.25;;;;;;;21.66;52.38;98727.53;7752415;32;37625;-77
2023/10/21 16:51:56;;;;;;;5.60;1.37;;;;;;;21.84;52.16;98735.34;7782020;32;39467;-77
2023/10/21 16:56:12;;;;;;;6.97;1.40;;;;;;;21.71;53.19;98743.87;7783246;32;39909;-78
2023/10/21 17:00:29;;;;;;;3.72;1.50;;;;;;;21.61;54.33;98754.75;7793089;32;37853;-78
2023/10/21 17:04:45;;;;;;;7.82;2.08;;;;;;;21.42;54.74;98769.47;7782697;32;36789;-78
2023/10/21 17:09:05;;;;;;;5.97;1.80;;;;;;;21.22;55.56;98769.53;7766025;32;40074;-79
2023/10/21 17:13:23;;;;;;;6.28;2.12;;;;;;;20.58;57.85;98783.69;7781369;32;39997;-78
2023/10/21 17:17:39;;;;;;;7.18;2.35;;;;;;;20.65;57.37;98782.28;7769171;32;37798;-78
2023/10/21 17:21:56;;;;;;;5.18;2.58;;;;;;;20.73;57.73;98784.00;7788447;32;37285;-81
2023/10/21 17:26:13;;;;;;;7.70;2.40;;;;;;;20.81;57.81;98774.69;7777437;32;39647;-78
2023/10/21 17:30:31;;;;;;;7.30;1.92;;;;;;;20.65;58.84;98776.72;7778397;32;39754;-78
2023/10/21 17:34:47;;;;;;;5.87;2.03;;;;;;;20.79;58.62;98777.03;7777856;32;39691;-78
2023/10/21 17:39:04;;;;;;;7.10;2.08;;;;;;;20.75;58.71;98776.16;7776277;32;37749;-78
2023/10/21 17:43:20;;;;;;;6.85;2.22;;;;;;;20.67;59.23;98772.41;7776960;32;39437;-78
2023/10/21 17:47:37;;;;;;;7.50;1.98;;;;;;;19.96;61.78;98782.69;7775503;32;40933;-78
2023/10/21 17:51:53;;;;;;;3.60;1.75;;;;;;;20.42;60.18;98786.50;7764681;32;38637;-77
2023/10/21 17:56:10;;;;;;;8.52;1.85;;;;;;;20.23;60.87;98792.00;7783800;32;37796;-78
2023/10/21 18:00:26;;;;;;;6.35;2.30;;;;;;;20.12;61.06;98800.06;7791009;32;39478;-78
2023/10/21 18:04:42;;;;;;;11.65;2.55;;;;;;;20.00;61.94;98814.78;7782272;32;39897;-78
2023/10/21 18:08:59;;;;;;;7.55;2.40;;;;;;;20.17;61.40;98808.09;7772528;32;37227;-78
2023/10/21 18:13:16;;;;;;;6.30;1.80;;;;;;;20.27;61.31;98803.97;7776013;32;37144;-78
2023/10/21 18:17:33;;;;;;;13.95;3.03;;;;;;;20.05;62.17;98805.44;7775063;32;39382;-78
2023/10/21 18:21:50;;;;;;;10.32;2.67;;;;;;;20.05;62.37;98802.66;7777003;32;39734;-77
2023/10/21 18:26:06;;;;;;;8.25;2.10;;;;;;;20.26;61.74;98800.41;7776307;32;37977;-79
2023/10/21 18:30:23;;;;;;;7.85;2.15;;;;;;;20.16;62.09;98797.37;7776442;32;37768;-77
2023/10/21 18:34:40;;;;;;;7.95;2.80;;;;;;;20.29;61.91;98779.50;7760220;32;39882;-76
2023/10/21 18:38:56;;;;;;;6.22;2.53;;;;;;;20.02;63.26;98784.00;7776938;32;40798;-77
2023/10/21 18:43:13;;;;;;;10.95;2.83;;;;;;;20.26;62.33;98772.75;7775849;32;38306;-77
2023/10/21 18:47:29;;;;;;;12.27;2.83;;;;;;;20.07;62.80;98759.66;7776674;32;38071;-78
2023/10/21 18:51:45;;;;;;;9.77;2.95;;;;;;;20.21;62.33;98759.19;7776904;32;40114;-78
2023/10/21 18:56:03;;;;;;;8.20;2.53;;;;;;;20.22;62.75;98759.97;7765153;32;40023;-77
2023/10/21 19:00:20;;;;;;;9.05;4.37;;;;;;;20.08;63.23;98754.94;7775002;32;38790;-76
2023/10/21 19:04:38;;;;;;;11.15;4.60;;;;;;;19.97;63.34;98762.97;7775448;32;36879;-77
2023/10/21 19:08:57;;;;;;;8.57;4.30;;;;;;;19.76;64.00;98771.56;7774611;32;39338;-78
2023/10/21 19:13:17;;;;;;;10.38;4.78;;;;;;;19.41;65.19;98768.69;7779275;32;39743;-78
2023/10/21 19:17:34;;;;;;;11.85;4.57;;;;;;;19.64;64.43;98760.56;7765413;32;38557;-78
2023/10/21 19:21:53;;;;;;;8.43;4.40;;;;;;;19.47;65.09;98753.44;7765204;32;37610;-77
2023/10/21 19:26:10;;;;;;;10.25;4.05;;;;;;;19.51;64.86;98748.81;7775699;32;38317;-76
2023/10/21 19:30:26;;;;;;;9.95;4.47;;;;;;;19.39;65.40;98766.28;7774682;32;40913;-77
2023/10/21 19:34:43;;;;;;;9.57;4.72;;;;;;;19.35;65.52;98773.69;7774121;32;37631;-77
2023/10/21 19:38:59;;;;;;;8.15;4.12;;;;;;;19.30;65.71;98774.75;7774834;32;37006;-76
2023/10/21 19:43:16;;;;;;;8.75;3.85;;;;;;;19.13;66.37;98778.62;7775169;32;40209;-75
2023/10/21 19:47:33;;;;;;;11.73;4.87;;;;;;;19.09;66.51;98788.78;7774920;32;39944;-76
2023/10/21 19:51:51;;;;;;;9.00;3.70;;;;;;;18.96;67.13;98795.53;7775474;32;38453;-75
2023/10/21 19:56:09;;;;;;;6.80;3.92;;;;;;;19.08;66.56;98786.38;7775317;32;35593;-76
2023/10/21 20:00:25;;;;;;;9.95;3.72;;;;;;;19.18;66.21;98774.81;7762823;32;39391;-75
2023/10/21 20:04:42;;;;;;;9.70;3.97;;;;;;;19.13;66.33;98772.31;7764147;32;40786;-76
2023/10/21 20:08:58;;;;;;;7.75;3.72;;;;;;;19.00;67.08;98757.75;7765630;32;38013;-79
2023/10/21 20:13:19;;;;;;;8.85;3.80;;;;;;;18.84;67.85;98749.44;7765884;32;36721;-75
2023/10/21 20:17:52;;;;;;;6.78;3.40;;;;;;;19.08;66.75;98753.22;7758161;32;39643;-74
2023/10/21 20:22:09;;;;;;;8.35;3.30;;;;;;;19.07;66.78;98727.56;7775652;32;40039;-75
2023/10/21 20:26:26;;;;;;;9.55;3.85;;;;;;;19.05;66.95;98712.50;7777252;32;37513;-75
2023/10/21 20:30:44;;;;;;;10.27;3.97;;;;;;;18.57;68.47;98707.66;7775451;32;37082;-75
2023/10/21 20:35:05;;;;;;;11.10;4.20;;;;;;;18.74;68.32;98697.44;7777826;32;39338;-75
2023/10/21 20:39:32;;;;;;;9.13;3.90;;;;;;;18.76;68.04;98693.19;7775511;32;39989;-75
2023/10/21 20:43:51;;;;;;;8.60;4.28;;;;;;;18.83;68.12;98700.09;7776553;32;38045;-75
2023/10/21 20:48:07;;;;;;;8.88;4.03;;;;;;;18.74;68.55;98695.50;7776361;32;37184;-75